Time;durP1;ratioP1;P1;durP2;ratioP2;P2;SDS_P1;SDS_P2;PMS_P1;PMS_P2;Temp;Humidity;BMP_temperature;BMP_pressure;BME280_temperature;BME280_humidity;BME280_pressure;Samples;Min_cycle;Max_cycle;Signal;HPM_P1;HPM_P2
2022/02/27 00:01:27;;;;;;;19.13;7.33;;;3.50;99.90;;;;;;6184441;23;20194;-78
2022/02/27 00:03:54;;;;;;;25.53;7.97;;;3.50;99.90;;;;;;6173660;23;20167;-78
2022/02/27 00:06:21;;;;;;;18.73;8.33;;;3.40;99.90;;;;;;6175105;23;20174;-79
2022/02/27 00:08:49;;;;;;;16.00;7.60;;;3.40;99.90;;;;;;6174173;23;20167;-78
2022/02/27 00:11:16;;;;;;;20.53;7.80;;;3.30;99.90;;;;;;6174558;23;20195;-78
2022/02/27 00:13:43;;;;;;;21.30;7.67;;;3.30;99.90;;;;;;6173089;23;20445;-79
2022/02/27 00:16:09;;;;;;;20.13;6.80;;;3.30;99.90;;;;;;6175340;23;20189;-79
2022/02/27 00:18:36;;;;;;;21.07;7.10;;;3.30;99.90;;;;;;6175456;23;20205;-80
2022/02/27 00:21:03;;;;;;;18.80;8.33;;;3.20;99.90;;;;;;6174571;23;20171;-80
2022/02/27 00:23:30;;;;;;;21.47;7.17;;;3.20;99.90;;;;;;6174398;23;20171;-76
2022/02/27 00:25:58;;;;;;;25.93;8.00;;;3.20;99.90;;;;;;6174811;23;20275;-77
2022/02/27 00:28:25;;;;;;;21.07;7.80;;;3.20;99.90;;;;;;6174758;23;20869;-78
2022/02/27 00:30:52;;;;;;;18.50;8.80;;;3.20;99.90;;;;;;6173771;23;20214;-78
2022/02/27 00:33:18;;;;;;;26.67;7.97;;;3.20;99.90;;;;;;6174908;23;20179;-79
2022/02/27 00:35:46;;;;;;;17.83;7.03;;;3.20;99.90;;;;;;6174162;23;20174;-79
2022/02/27 00:38:13;;;;;;;18.23;7.13;;;3.20;99.90;;;;;;6173999;23;20178;-79
2022/02/27 00:40:40;;;;;;;17.33;7.57;;;3.20;99.90;;;;;;6174282;23;20171;-80
2022/02/27 00:43:08;;;;;;;17.83;7.77;;;3.20;99.90;;;;;;6174822;23;20170;-79
2022/02/27 00:45:35;;;;;;;17.57;7.03;;;3.10;99.90;;;;;;6174217;23;20179;-79
2022/02/27 00:48:01;;;;;;;18.70;7.43;;;3.10;99.90;;;;;;6174189;23;20181;-79
2022/02/27 00:50:28;;;;;;;16.13;7.87;;;3.10;99.90;;;;;;6148585;23;20194;-80
2022/02/27 00:52:55;;;;;;;20.03;7.83;;;3.10;99.90;;;;;;6173364;23;20182;-78
2022/02/27 00:55:22;;;;;;;19.77;8.80;;;3.00;99.90;;;;;;6174976;23;20187;-79
2022/02/27 00:57:49;;;;;;;18.73;8.30;;;3.00;99.90;;;;;;6173985;23;20167;-81
2022/02/27 01:00:17;;;;;;;25.27;8.57;;;3.00;99.90;;;;;;6174503;23;20190;-79
2022/02/27 01:02:44;;;;;;;15.60;7.83;;;3.00;99.90;;;;;;6175618;23;20174;-79
2022/02/27 01:05:11;;;;;;;17.13;8.57;;;3.00;99.90;;;;;;6173124;23;20568;-80
2022/02/27 01:07:38;;;;;;;15.20;8.33;;;3.00;99.90;;;;;;6174697;23;20716;-80
2022/02/27 01:10:06;;;;;;;22.73;8.37;;;2.90;99.90;;;;;;6174164;23;20175;-80
2022/02/27 01:12:33;;;;;;;14.43;7.67;;;2.90;99.90;;;;;;6174234;23;20186;-79
2022/02/27 01:15:00;;;;;;;17.60;8.00;;;2.90;99.90;;;;;;6173657;23;20167;-79
2022/02/27 01:17:28;;;;;;;18.70;8.13;;;2.90;99.90;;;;;;6175399;23;20175;-78
2022/02/27 01:19:54;;;;;;;19.20;8.13;;;2.80;99.90;;;;;;6174068;23;20186;-80
2022/02/27 01:22:21;;;;;;;19.63;8.00;;;2.80;99.90;;;;;;6175916;23;20174;-78
2022/02/27 01:24:48;;;;;;;17.00;7.93;;;2.80;99.90;;;;;;6176862;23;20185;-79
2022/02/27 01:27:15;;;;;;;17.03;8.07;;;2.70;99.90;;;;;;6177162;23;20183;-81
2022/02/27 01:29:41;;;;;;;17.17;7.53;;;2.70;99.90;;;;;;6175618;23;20853;-79
2022/02/27 01:32:09;;;;;;;18.63;7.27;;;2.70;99.90;;;;;;6176560;23;20253;-78
2022/02/27 01:34:37;;;;;;;17.00;8.23;;;2.70;99.90;;;;;;6176493;23;20628;-79
2022/02/27 01:37:05;;;;;;;16.17;6.63;;;2.70;99.90;;;;;;6176083;23;20171;-80
2022/02/27 01:39:32;;;;;;;16.33;7.40;;;2.70;99.90;;;;;;6177443;23;20185;-79
2022/02/27 01:41:59;;;;;;;20.03;8.13;;;2.60;99.90;;;;;;6175715;23;20206;-80
2022/02/27 01:44:26;;;;;;;15.60;7.30;;;2.60;99.90;;;;;;6177133;23;20179;-80
2022/02/27 01:46:57;;;;;;;16.47;6.73;;;2.50;99.90;;;;;;6175693;23;20446;-80
2022/02/27 01:49:23;;;;;;;15.60;7.60;;;2.50;99.90;;;;;;6175941;23;20435;-79
2022/02/27 01:51:52;;;;;;;13.30;6.70;;;2.50;99.90;;;;;;6176692;23;20230;-78
2022/02/27 01:54:18;;;;;;;15.57;6.67;;;2.40;99.90;;;;;;6205601;23;20201;-79
2022/02/27 01:56:46;;;;;;;19.23;7.27;;;2.40;99.90;;;;;;6205630;23;20213;-79
2022/02/27 01:59:14;;;;;;;19.10;7.10;;;2.40;99.90;;;;;;6205960;23;20208;-78
2022/02/27 02:01:41;;;;;;;12.87;6.20;;;2.40;99.90;;;;;;6205491;23;20224;-79
2022/02/27 02:04:08;;;;;;;20.53;8.87;;;2.40;99.90;;;;;;6206258;23;20180;-79
2022/02/27 02:06:34;;;;;;;17.67;6.40;;;2.40;99.90;;;;;;6207139;23;20178;-80
2022/02/27 02:09:05;;;;;;;15.90;7.13;;;2.40;99.90;;;;;;6204808;23;20174;-80
2022/02/27 02:11:32;;;;;;;17.40;6.87;;;2.30;99.90;;;;;;6206514;23;20184;-80
2022/02/27 02:14:02;;;;;;;13.73;6.63;;;2.30;99.90;;;;;;6205721;23;20795;-80
2022/02/27 02:16:39;;;;;;;15.07;6.30;;;2.30;99.90;;;;;;6205775;23;20176;-80
2022/02/27 02:19:07;;;;;;;18.07;6.90;;;2.30;99.90;;;;;;6206468;23;20200;-80
2022/02/27 02:21:39;;;;;;;13.00;6.10;;;2.30;99.90;;;;;;6206427;23;20170;-79
2022/02/27 02:24:07;;;;;;;14.40;6.40;;;2.20;99.90;;;;;;6205667;23;20166;-80
2022/02/27 02:26:36;;;;;;;18.37;6.00;;;2.30;99.90;;;;;;6206870;23;20174;-79
2022/02/27 02:29:03;;;;;;;12.07;5.57;;;2.30;99.90;;;;;;6205754;23;20178;-78
2022/02/27 02:31:30;;;;;;;14.90;6.47;;;2.30;99.90;;;;;;6179429;23;20194;-79
2022/02/27 02:33:57;;;;;;;13.37;6.03;;;2.30;99.90;;;;;;6206051;23;20236;-79
2022/02/27 02:36:24;;;;;;;18.60;6.70;;;2.30;99.90;;;;;;6206176;23;20172;-79
2022/02/27 02:38:54;;;;;;;19.40;6.77;;;2.30;99.90;;;;;;6205687;23;20178;-79
2022/02/27 02:41:21;;;;;;;14.57;6.27;;;2.30;99.90;;;;;;6206408;23;20241;-78
2022/02/27 02:43:49;;;;;;;16.03;6.93;;;2.30;99.90;;;;;;6204648;23;20590;-78
2022/02/27 02:46:16;;;;;;;14.70;7.47;;;2.30;99.90;;;;;;6204212;23;20174;-79
2022/02/27 02:48:43;;;;;;;18.00;6.67;;;2.30;99.90;;;;;;6205238;23;20182;-79
2022/02/27 02:51:09;;;;;;;14.10;6.03;;;2.30;99.90;;;;;;6205597;23;20202;-80
2022/02/27 02:53:37;;;;;;;16.80;7.20;;;2.30;99.90;;;;;;6205814;23;20181;-80
2022/02/27 02:56:07;;;;;;;17.30;6.10;;;2.30;99.90;;;;;;6204257;23;20174;-79
2022/02/27 02:58:35;;;;;;;15.47;5.80;;;2.20;99.90;;;;;;6205137;23;20169;-80
2022/02/27 03:01:03;;;;;;;20.43;6.43;;;2.20;99.90;;;;;;6205854;23;20194;-79
2022/02/27 03:03:30;;;;;;;17.77;7.20;;;2.20;99.90;;;;;;6206413;23;20174;-80
2022/02/27 03:05:57;;;;;;;17.07;6.63;;;2.20;99.90;;;;;;6204982;23;20560;-80
2022/02/27 03:08:24;;;;;;;13.87;6.90;;;2.30;99.90;;;;;;6205424;23;20170;-77
2022/02/27 03:10:51;;;;;;;23.00;8.50;;;2.30;99.90;;;;;;6205043;23;20185;-81
2022/02/27 03:13:19;;;;;;;13.90;6.63;;;2.20;99.90;;;;;;6204907;23;20170;-78
2022/02/27 03:15:46;;;;;;;20.07;7.63;;;2.20;99.90;;;;;;6205264;23;20181;-80
2022/02/27 03:18:13;;;;;;;21.73;7.13;;;2.20;99.90;;;;;;6203960;23;20596;-80
2022/02/27 03:20:40;;;;;;;12.20;7.07;;;2.10;99.90;;;;;;6203702;23;20262;-80
2022/02/27 03:23:07;;;;;;;14.00;6.93;;;2.10;99.90;;;;;;6204958;23;20205;-79
2022/02/27 03:25:34;;;;;;;12.47;6.03;;;2.10;99.90;;;;;;6205542;23;20188;-80
2022/02/27 03:28:01;;;;;;;12.57;6.40;;;2.10;99.90;;;;;;6204261;23;20575;-79
2022/02/27 03:30:30;;;;;;;17.13;6.60;;;2.10;99.90;;;;;;6204866;23;20189;-79
2022/02/27 03:32:57;;;;;;;15.73;6.77;;;2.10;99.90;;;;;;6204711;23;20198;-79
2022/02/27 03:35:24;;;;;;;14.97;6.63;;;2.10;99.90;;;;;;6205626;23;20202;-78
2022/02/27 03:37:51;;;;;;;14.67;6.57;;;2.00;99.90;;;;;;6205096;23;20174;-78
2022/02/27 03:40:19;;;;;;;15.03;6.20;;;2.00;99.90;;;;;;6205386;23;20174;-80
2022/02/27 03:42:46;;;;;;;11.30;6.03;;;2.00;99.90;;;;;;6204863;23;20181;-79
2022/02/27 03:45:15;;;;;;;17.50;6.30;;;2.00;99.90;;;;;;6205182;23;20638;-79
2022/02/27 03:47:43;;;;;;;15.40;6.87;;;2.00;99.90;;;;;;6203794;23;20181;-79
2022/02/27 03:50:12;;;;;;;17.90;6.33;;;2.00;99.90;;;;;;6204811;23;20178;-78
2022/02/27 03:52:38;;;;;;;15.10;7.53;;;2.00;99.90;;;;;;6205515;23;20460;-78
2022/02/27 03:55:07;;;;;;;14.30;7.03;;;2.00;99.90;;;;;;6204624;23;20166;-78
2022/02/27 03:57:34;;;;;;;20.47;7.27;;;2.00;99.90;;;;;;6205712;23;20177;-79
2022/02/27 04:00:01;;;;;;;12.30;6.43;;;2.00;99.90;;;;;;6204547;23;20570;-79
2022/02/27 04:02:27;;;;;;;18.67;6.77;;;2.00;99.90;;;;;;6204014;23;20622;-80
2022/02/27 04:04:55;;;;;;;15.80;6.80;;;2.00;99.90;;;;;;6204668;23;20166;-79
2022/02/27 04:07:22;;;;;;;13.37;6.10;;;2.00;99.90;;;;;;6205096;23;20181;-78
2022/02/27 04:09:50;;;;;;;19.00;7.10;;;2.00;99.90;;;;;;6204326;23;20174;-79
2022/02/27 04:12:17;;;;;;;16.77;7.20;;;2.00;99.90;;;;;;6204492;23;20194;-79
2022/02/27 04:14:44;;;;;;;17.63;8.03;;;2.00;99.90;;;;;;6202691;23;20177;-79
2022/02/27 04:17:11;;;;;;;16.07;7.47;;;2.00;99.90;;;;;;6204383;23;20174;-79
2022/02/27 04:19:37;;;;;;;16.33;7.77;;;2.00;99.90;;;;;;6204200;23;20166;-78
2022/02/27 04:22:06;;;;;;;21.30;7.20;;;2.00;99.90;;;;;;6204659;23;20170;-79
2022/02/27 04:24:32;;;;;;;14.67;7.43;;;1.90;99.90;;;;;;6204808;23;20173;-78
2022/02/27 04:26:59;;;;;;;18.00;6.73;;;1.90;99.90;;;;;;6204198;23;20493;-78
2022/02/27 04:29:26;;;;;;;17.00;6.47;;;1.90;99.90;;;;;;6204237;23;20170;-80
2022/02/27 04:31:53;;;;;;;13.57;6.87;;;1.90;99.90;;;;;;6203712;23;20194;-79
2022/02/27 04:34:20;;;;;;;21.03;6.83;;;1.90;99.90;;;;;;6204709;23;20213;-78
2022/02/27 04:36:47;;;;;;;18.67;7.60;;;1.90;99.90;;;;;;6203939;23;20189;-78
2022/02/27 04:39:15;;;;;;;15.07;5.97;;;1.90;99.90;;;;;;6205105;23;20166;-79
2022/02/27 04:41:42;;;;;;;19.43;6.93;;;1.90;99.90;;;;;;6204555;23;20197;-80
2022/02/27 04:44:09;;;;;;;15.80;7.53;;;1.80;99.90;;;;;;6203156;23;20185;-79
2022/02/27 04:46:36;;;;;;;18.47;7.27;;;1.80;99.90;;;;;;6204778;23;20170;-79
2022/02/27 04:49:02;;;;;;;15.90;7.33;;;1.80;99.90;;;;;;6204071;23;20174;-79
2022/02/27 04:51:29;;;;;;;13.53;7.20;;;1.80;99.90;;;;;;6203566;23;20181;-79
2022/02/27 04:53:56;;;;;;;16.07;6.87;;;1.80;99.90;;;;;;6203231;23;20170;-79
2022/02/27 04:56:24;;;;;;;16.37;8.03;;;1.80;99.90;;;;;;6203759;23;20167;-80
2022/02/27 04:58:51;;;;;;;14.77;6.30;;;1.80;99.90;;;;;;6203378;23;20170;-79
2022/02/27 05:01:18;;;;;;;17.47;7.20;;;1.80;99.90;;;;;;6205849;23;20186;-78
2022/02/27 05:03:44;;;;;;;12.30;6.20;;;1.80;99.90;;;;;;6205002;23;20166;-79
2022/02/27 05:06:11;;;;;;;17.80;6.83;;;1.70;99.90;;;;;;6205622;23;20208;-78
2022/02/27 05:08:38;;;;;;;16.43;7.47;;;1.70;99.90;;;;;;6205501;23;21010;-78
2022/02/27 05:11:06;;;;;;;14.10;7.37;;;1.70;99.90;;;;;;6205104;23;20234;-79
2022/02/27 05:13:34;;;;;;;13.33;6.77;;;1.70;99.90;;;;;;6205774;23;20204;-79
2022/02/27 05:16:01;;;;;;;16.83;7.37;;;1.70;99.90;;;;;;6205393;23;20177;-79
2022/02/27 05:18:27;;;;;;;12.10;6.63;;;1.70;99.90;;;;;;6205029;23;20173;-79
2022/02/27 05:20:54;;;;;;;16.10;6.77;;;1.70;99.90;;;;;;6205363;23;20185;-80
2022/02/27 05:23:21;;;;;;;18.40;7.17;;;1.70;99.90;;;;;;6205045;23;20177;-78
2022/02/27 05:25:48;;;;;;;12.37;6.57;;;1.70;99.90;;;;;;6205806;23;20189;-78
2022/02/27 05:28:15;;;;;;;14.40;6.93;;;1.70;99.90;;;;;;6206289;23;20166;-78
2022/02/27 05:30:43;;;;;;;16.47;6.90;;;1.70;99.90;;;;;;6205770;23;20174;-79
2022/02/27 05:33:15;;;;;;;14.73;7.07;;;1.70;99.90;;;;;;6204415;23;20186;-78
2022/02/27 05:35:41;;;;;;;13.17;6.83;;;1.60;99.90;;;;;;6205836;23;20202;-77
2022/02/27 05:38:08;;;;;;;10.97;6.03;;;1.60;99.90;;;;;;6206370;23;20173;-79
2022/02/27 05:40:35;;;;;;;14.23;6.87;;;1.60;99.90;;;;;;6205243;23;20241;-79
2022/02/27 05:43:02;;;;;;;12.23;5.83;;;1.60;99.90;;;;;;6205282;23;20177;-79
2022/02/27 05:45:28;;;;;;;13.80;6.37;;;1.70;99.90;;;;;;6205669;23;20178;-79
2022/02/27 05:47:57;;;;;;;18.53;6.53;;;1.70;99.90;;;;;;6204630;23;20178;-80
2022/02/27 05:50:23;;;;;;;13.30;6.27;;;1.70;99.90;;;;;;6205338;23;20841;-79
2022/02/27 05:52:50;;;;;;;13.23;6.70;;;1.80;99.90;;;;;;6205409;23;20209;-80
2022/02/27 05:55:17;;;;;;;12.43;6.80;;;1.80;99.90;;;;;;6204992;23;20177;-78
2022/02/27 05:57:44;;;;;;;14.20;6.30;;;1.80;99.90;;;;;;6205862;23;20178;-79
2022/02/27 06:00:12;;;;;;;14.23;6.27;;;1.80;99.90;;;;;;6204436;23;20204;-78
2022/02/27 06:02:38;;;;;;;12.97;6.43;;;1.80;99.90;;;;;;6206513;23;20173;-80
2022/02/27 06:05:08;;;;;;;14.47;8.50;;;1.80;99.90;;;;;;6205614;23;20725;-78
2022/02/27 06:07:35;;;;;;;16.53;8.17;;;1.80;99.90;;;;;;6205708;23;20178;-79
2022/02/27 06:10:02;;;;;;;22.60;9.10;;;1.80;99.90;;;;;;6205653;23;20177;-79
2022/02/27 06:12:29;;;;;;;13.63;6.50;;;1.80;99.90;;;;;;6205621;23;20657;-78
2022/02/27 06:14:55;;;;;;;20.73;7.07;;;1.80;99.90;;;;;;6205219;23;20187;-78
2022/02/27 06:17:22;;;;;;;19.10;6.33;;;1.80;99.90;;;;;;6205739;23;20177;-78
2022/02/27 06:19:49;;;;;;;16.07;7.57;;;1.80;99.90;;;;;;6206262;23;20178;-80
2022/02/27 06:22:17;;;;;;;14.00;6.53;;;1.80;99.90;;;;;;6205154;23;20170;-79
2022/02/27 06:24:44;;;;;;;12.70;6.57;;;1.80;99.90;;;;;;6204135;23;20193;-79
2022/02/27 06:27:11;;;;;;;17.20;6.60;;;1.80;99.90;;;;;;6206266;23;20170;-78
2022/02/27 06:29:37;;;;;;;12.17;6.43;;;1.70;99.90;;;;;;6205604;23;20174;-78
2022/02/27 06:32:05;;;;;;;13.07;6.50;;;1.70;99.90;;;;;;6205937;23;20174;-80
2022/02/27 06:34:32;;;;;;;20.27;7.10;;;1.70;99.90;;;;;;6205477;23;20216;-79
2022/02/27 06:36:59;;;;;;;16.83;6.40;;;1.60;99.90;;;;;;6204300;23;20567;-79
2022/02/27 06:39:27;;;;;;;10.57;5.70;;;1.60;99.90;;;;;;6205096;23;20193;-78
2022/02/27 06:41:54;;;;;;;13.30;6.10;;;1.60;99.90;;;;;;6205650;23;20182;-78
2022/02/27 06:44:20;;;;;;;11.10;6.33;;;1.50;99.90;;;;;;6205477;23;20575;-78
2022/02/27 06:46:47;;;;;;;13.23;6.00;;;1.50;99.90;;;;;;6205263;23;20170;-79
2022/02/27 06:49:14;;;;;;;20.93;7.77;;;1.50;99.90;;;;;;6205693;23;20180;-78
2022/02/27 06:51:41;;;;;;;13.27;7.57;;;1.50;99.90;;;;;;6206101;23;20185;-79
2022/02/27 06:54:08;;;;;;;8.00;5.90;;;1.50;99.90;;;;;;6206585;23;20198;-80
2022/02/27 06:56:36;;;;;;;10.20;5.57;;;1.50;99.90;;;;;;6206312;23;20653;-79
2022/02/27 06:59:03;;;;;;;16.47;6.57;;;1.40;99.90;;;;;;6206259;23;20197;-78
2022/02/27 07:01:29;;;;;;;12.87;6.37;;;1.40;99.90;;;;;;6207051;23;20194;-79
2022/02/27 07:03:56;;;;;;;10.70;5.60;;;1.50;99.90;;;;;;6206695;23;20170;-78
2022/02/27 07:06:23;;;;;;;10.77;5.40;;;1.40;99.90;;;;;;6207426;23;20174;-79
2022/02/27 07:08:50;;;;;;;17.00;6.10;;;1.40;99.90;;;;;;6204414;23;20170;-79
2022/02/27 07:11:16;;;;;;;14.43;5.73;;;1.40;99.90;;;;;;6204753;23;20181;-78
2022/02/27 07:13:47;;;;;;;12.53;5.30;;;1.40;99.90;;;;;;6205240;23;20197;-79
2022/02/27 07:16:15;;;;;;;14.83;5.80;;;1.40;99.90;;;;;;6205464;23;20212;-77
2022/02/27 07:18:43;;;;;;;17.60;5.87;;;1.40;99.90;;;;;;6204743;23;20579;-79
2022/02/27 07:21:09;;;;;;;16.73;6.13;;;1.40;99.90;;;;;;6205759;23;20649;-79
2022/02/27 07:23:36;;;;;;;14.33;6.30;;;1.30;99.90;;;;;;6205640;23;20170;-79
2022/02/27 07:26:03;;;;;;;12.83;5.70;;;1.30;99.90;;;;;;6204537;23;20192;-80
2022/02/27 07:28:30;;;;;;;10.53;5.83;;;1.40;99.90;;;;;;6205101;23;20171;-78
2022/02/27 07:30:58;;;;;;;18.00;7.40;;;1.40;99.90;;;;;;6205158;23;20201;-79
2022/02/27 07:33:25;;;;;;;18.73;7.07;;;1.40;99.90;;;;;;6204788;23;20197;-79
2022/02/27 07:35:53;;;;;;;10.30;5.97;;;1.50;99.90;;;;;;6203636;23;20183;-80
2022/02/27 07:38:19;;;;;;;15.53;6.37;;;1.50;99.90;;;;;;6205358;23;20170;-79
2022/02/27 07:40:48;;;;;;;11.67;6.50;;;1.50;99.90;;;;;;6203622;23;20173;-78
2022/02/27 07:43:15;;;;;;;14.73;6.63;;;1.60;99.90;;;;;;6205071;23;20197;-79
2022/02/27 07:45:41;;;;;;;18.33;7.43;;;1.60;99.90;;;;;;6204083;23;20181;-78
2022/02/27 07:48:09;;;;;;;17.70;7.50;;;1.70;99.90;;;;;;6205142;23;20734;-77
2022/02/27 07:50:36;;;;;;;18.03;7.50;;;1.80;99.90;;;;;;6204635;23;20445;-78
2022/02/27 07:53:03;;;;;;;15.23;8.77;;;1.80;99.90;;;;;;6204197;23;20190;-78
2022/02/27 07:55:30;;;;;;;18.83;8.07;;;1.90;99.90;;;;;;6205079;23;20430;-78
2022/02/27 07:57:57;;;;;;;13.23;7.67;;;2.00;99.90;;;;;;6203384;23;20178;-78
2022/02/27 08:00:24;;;;;;;13.07;6.60;;;2.00;99.90;;;;;;6204383;23;20194;-78
2022/02/27 08:02:50;;;;;;;12.33;6.23;;;2.10;99.90;;;;;;6205070;23;20184;-78
2022/02/27 08:05:19;;;;;;;12.10;6.37;;;2.20;99.90;;;;;;6204515;23;20174;-78
2022/02/27 08:07:46;;;;;;;20.20;6.50;;;2.30;99.90;;;;;;6204537;23;20174;-77
2022/02/27 08:10:13;;;;;;;15.80;5.60;;;2.40;99.90;;;;;;6205069;23;20174;-78
2022/02/27 08:12:42;;;;;;;14.60;6.40;;;2.50;99.90;;;;;;6204600;23;20684;-77
2022/02/27 08:15:10;;;;;;;18.20;6.20;;;2.50;99.90;;;;;;6204718;23;20201;-78
2022/02/27 08:17:38;;;;;;;11.73;5.70;;;2.60;99.90;;;;;;6204919;23;20170;-79
2022/02/27 08:20:05;;;;;;;10.80;5.57;;;2.70;99.90;;;;;;6204031;23;20605;-77
2022/02/27 08:22:36;;;;;;;10.53;5.50;;;2.80;99.90;;;;;;6204295;23;20174;-76
2022/02/27 08:25:04;;;;;;;13.63;4.83;;;2.90;99.90;;;;;;6205706;23;20193;-78
2022/02/27 08:27:30;;;;;;;10.97;5.67;;;2.90;99.90;;;;;;6206581;23;20181;-80
2022/02/27 08:33:51;;;;;;;8.90;4.57;;;3.20;99.90;;;;;;6195146;23;20244;-79
2022/02/27 08:36:18;;;;;;;13.33;4.87;;;3.30;99.90;;;;;;6222894;23;20618;-82
2022/02/27 08:38:48;;;;;;;11.33;5.23;;;3.40;99.90;;;;;;6237002;23;20180;-81
2022/02/27 08:41:15;;;;;;;12.50;4.67;;;3.40;99.90;;;;;;6238603;23;20173;-81
2022/02/27 08:43:42;;;;;;;11.50;4.40;;;3.50;99.90;;;;;;6237508;23;20687;-82
2022/02/27 08:46:08;;;;;;;17.43;5.07;;;3.70;99.90;;;;;;6238982;23;20482;-80
2022/02/27 08:48:35;;;;;;;10.40;4.30;;;3.80;99.90;;;;;;6238633;23;20177;-84
2022/02/27 08:51:02;;;;;;;10.60;4.60;;;3.90;99.90;;;;;;6237612;23;20173;-80
2022/02/27 08:53:29;;;;;;;9.27;4.80;;;4.00;99.90;;;;;;6238442;23;20249;-83
2022/02/27 08:55:57;;;;;;;7.00;4.73;;;4.10;99.90;;;;;;6238911;23;20177;-82
2022/02/27 08:58:24;;;;;;;14.40;4.83;;;4.20;99.90;;;;;;6237590;23;20393;-80
2022/02/27 09:00:51;;;;;;;11.27;4.47;;;4.30;99.90;;;;;;6223677;23;20189;-84
2022/02/27 09:03:17;;;;;;;11.37;5.07;;;4.40;99.90;;;;;;6208306;23;20704;-80
2022/02/27 09:05:44;;;;;;;11.37;5.13;;;4.40;99.90;;;;;;6208885;23;20177;-80
2022/02/27 09:08:11;;;;;;;11.27;4.57;;;4.60;99.90;;;;;;6209161;23;20174;-83
2022/02/27 09:10:38;;;;;;;7.00;3.73;;;4.70;99.90;;;;;;6207761;23;20193;-81
2022/02/27 09:13:06;;;;;;;11.67;5.20;;;4.80;99.90;;;;;;6207051;23;20617;-81
2022/02/27 09:15:33;;;;;;;6.27;4.27;;;4.90;99.90;;;;;;6207135;23;20197;-83
2022/02/27 09:18:00;;;;;;;13.27;5.47;;;5.00;99.90;;;;;;6206562;23;20210;-83
2022/02/27 09:20:27;;;;;;;13.43;4.80;;;5.10;99.90;;;;;;6204724;23;20181;-80
2022/02/27 09:22:54;;;;;;;10.93;4.30;;;5.10;99.90;;;;;;6204068;23;20182;-78
2022/02/27 09:25:21;;;;;;;9.67;4.17;;;5.30;99.90;;;;;;6203958;23;20181;-79
2022/02/27 09:27:48;;;;;;;9.27;4.50;;;5.40;99.90;;;;;;6206452;23;20175;-81
2022/02/27 09:30:16;;;;;;;11.80;4.73;;;5.50;99.90;;;;;;6205011;23;20185;-82
2022/02/27 09:32:43;;;;;;;13.33;4.70;;;5.60;99.90;;;;;;6204893;23;20205;-79
2022/02/27 09:35:10;;;;;;;10.43;5.03;;;5.60;99.90;;;;;;6205225;23;20170;-81
2022/02/27 09:37:38;;;;;;;14.23;5.13;;;5.70;99.90;;;;;;6205790;23;20171;-79
2022/02/27 09:40:06;;;;;;;15.77;5.63;;;5.80;99.90;;;;;;6204142;23;20186;-78
2022/02/27 09:42:35;;;;;;;10.93;5.27;;;5.90;99.90;;;;;;6204767;23;20174;-83
2022/02/27 09:45:03;;;;;;;9.00;4.57;;;6.00;99.90;;;;;;6205425;23;20200;-80
2022/02/27 09:47:31;;;;;;;12.70;5.73;;;6.10;99.90;;;;;;6205382;23;20174;-80
2022/02/27 09:50:00;;;;;;;7.50;4.03;;;6.20;99.90;;;;;;6205630;23;20184;-78
2022/02/27 09:52:26;;;;;;;11.37;4.90;;;6.30;99.90;;;;;;6204361;23;20675;-79
2022/02/27 09:54:53;;;;;;;11.17;5.03;;;6.30;99.90;;;;;;6204715;23;20201;-79
2022/02/27 09:57:22;;;;;;;11.33;5.37;;;6.50;99.90;;;;;;6202160;23;20174;-79
2022/02/27 09:59:49;;;;;;;7.73;4.50;;;6.60;99.90;;;;;;6201754;23;20185;-79
2022/02/27 10:02:16;;;;;;;10.07;4.40;;;6.70;99.90;;;;;;6203241;23;20189;-77
2022/02/27 10:04:48;;;;;;;8.57;4.30;;;6.80;99.90;;;;;;6203467;23;20956;-79
2022/02/27 10:07:16;;;;;;;9.07;5.50;;;6.90;99.90;;;;;;6203336;23;20200;-79
2022/02/27 10:09:44;;;;;;;11.50;6.23;;;7.00;99.90;;;;;;6202733;23;20181;-79
2022/02/27 10:12:19;;;;;;;10.40;4.40;;;7.10;99.90;;;;;;6203532;23;20267;-79
2022/02/27 10:15:01;;;;;;;8.67;4.27;;;7.10;99.90;;;;;;6202560;23;20201;-79
2022/02/27 10:17:30;;;;;;;9.77;4.50;;;7.20;99.90;;;;;;6203245;23;20189;-79
2022/02/27 10:19:59;;;;;;;7.20;3.83;;;7.30;99.90;;;;;;6203175;23;20240;-79
2022/02/27 10:22:32;;;;;;;9.27;3.90;;;7.40;99.90;;;;;;6204084;23;20186;-80
2022/02/27 10:24:59;;;;;;;8.90;3.93;;;7.50;99.90;;;;;;6203706;23;20182;-81
2022/02/27 10:27:40;;;;;;;9.90;4.13;;;7.60;99.90;;;;;;6203706;23;20212;-79
2022/02/27 10:30:15;;;;;;;7.73;4.60;;;7.70;99.90;;;;;;6204288;23;20192;-80
2022/02/27 10:32:47;;;;;;;9.73;3.63;;;7.80;99.90;;;;;;6203501;23;20182;-79
2022/02/27 10:35:46;;;;;;;8.37;3.70;;;7.90;99.90;;;;;;6202097;23;20955;-78
2022/02/27 10:38:16;;;;;;;5.20;3.20;;;8.10;99.90;;;;;;6204888;23;20213;-82
2022/02/27 10:40:47;;;;;;;6.63;2.77;;;8.20;99.90;;;;;;6202953;23;20186;-79
2022/02/27 10:43:15;;;;;;;5.03;3.43;;;8.30;99.90;;;;;;6202721;23;20182;-79
2022/02/27 10:45:43;;;;;;;7.13;2.70;;;8.40;99.90;;;;;;6202942;23;20206;-79
2022/02/27 10:48:14;;;;;;;9.17;3.47;;;8.40;99.90;;;;;;6203734;23;20181;-80
2022/02/27 10:50:41;;;;;;;6.60;3.00;;;8.40;99.90;;;;;;6202414;23;20186;-80
2022/02/27 10:53:09;;;;;;;6.90;3.27;;;8.60;99.90;;;;;;6202310;23;20189;-80
2022/02/27 10:55:36;;;;;;;6.37;3.10;;;8.70;99.90;;;;;;6208525;22;20209;-80
2022/02/27 10:58:05;;;;;;;6.43;2.70;;;8.80;99.90;;;;;;6232985;23;20189;-81
2022/02/27 11:00:34;;;;;;;8.87;2.73;;;8.90;99.90;;;;;;6225340;23;20528;-80
2022/02/27 11:03:03;;;;;;;7.00;2.90;;;9.00;99.90;;;;;;6201744;23;20178;-79
2022/02/27 11:05:33;;;;;;;4.50;2.00;;;9.10;99.90;;;;;;6201357;23;20189;-78
2022/02/27 11:08:01;;;;;;;4.43;2.20;;;9.00;99.90;;;;;;6202949;23;20297;-78
2022/02/27 11:10:31;;;;;;;3.67;1.70;;;9.10;99.90;;;;;;6201959;23;20701;-79
2022/02/27 11:13:00;;;;;;;4.13;1.90;;;9.20;99.90;;;;;;6202152;23;20205;-78
2022/02/27 11:15:27;;;;;;;3.67;1.90;;;9.40;99.90;;;;;;6204200;23;20194;-79
2022/02/27 11:17:54;;;;;;;3.27;1.93;;;9.40;99.90;;;;;;6203506;23;20174;-78
2022/02/27 11:20:23;;;;;;;4.13;2.63;;;9.30;99.90;;;;;;6205202;23;20177;-77
2022/02/27 11:22:51;;;;;;;4.47;2.10;;;9.40;99.90;;;;;;6204382;23;20166;-79
2022/02/27 11:25:20;;;;;;;5.20;1.97;;;9.40;99.90;;;;;;6204750;23;20166;-81
2022/02/27 11:27:51;;;;;;;3.83;1.93;;;9.50;99.90;;;;;;6205215;23;20174;-77
2022/02/27 11:30:21;;;;;;;6.33;2.43;;;9.50;99.90;;;;;;6204843;23;20170;-79
2022/02/27 11:32:50;;;;;;;5.80;2.10;;;9.50;99.90;;;;;;6204059;23;20178;-78
2022/02/27 11:35:37;;;;;;;7.60;3.07;;;9.50;99.90;;;;;;6204803;23;20891;-78
2022/02/27 11:38:05;;;;;;;5.83;2.20;;;9.60;99.90;;;;;;6204338;23;20165;-80
2022/02/27 11:40:52;;;;;;;4.87;2.00;;;9.60;99.90;;;;;;6222775;23;20209;-79
2022/02/27 11:43:38;;;;;;;6.33;2.27;;;9.60;99.90;;;;;;6235039;23;20259;-79
2022/02/27 11:46:05;;;;;;;4.93;2.60;;;9.70;99.90;;;;;;6234883;23;20849;-78
2022/02/27 11:48:54;;;;;;;6.03;2.57;;;9.80;99.90;;;;;;6235521;23;20177;-79
2022/02/27 11:51:41;;;;;;;5.73;2.30;;;9.90;99.90;;;;;;6234570;23;20169;-78
2022/02/27 11:54:09;;;;;;;5.53;2.00;;;9.90;99.90;;;;;;6234424;23;20201;-80
2022/02/27 11:56:37;;;;;;;3.73;1.90;;;9.90;99.90;;;;;;6234846;23;20177;-80
2022/02/27 11:59:06;;;;;;;4.47;2.23;;;9.90;99.90;;;;;;6233337;23;20173;-79
2022/02/27 12:01:37;;;;;;;4.83;2.73;;;10.10;99.90;;;;;;6211500;23;20259;-79
2022/02/27 12:04:24;;;;;;;5.53;2.60;;;10.10;99.90;;;;;;6204427;23;20888;-80
2022/02/27 12:07:06;;;;;;;3.10;2.00;;;10.20;99.90;;;;;;6203580;23;20177;-79
2022/02/27 12:09:55;;;;;;;4.43;2.20;;;10.10;99.90;;;;;;6203741;23;20229;-78
2022/02/27 12:12:54;;;;;;;3.33;2.00;;;10.10;99.90;;;;;;6204905;23;20178;-79
2022/02/27 12:15:25;;;;;;;3.07;2.10;;;10.10;99.90;;;;;;6203454;23;20193;-79
2022/02/27 12:17:53;;;;;;;3.70;2.10;;;10.10;99.90;;;;;;6203529;23;20233;-79
2022/02/27 12:20:42;;;;;;;2.73;1.67;;;10.10;99.90;;;;;;6203231;23;20181;-78
2022/02/27 12:23:11;;;;;;;2.77;2.03;;;10.20;99.90;;;;;;6205528;23;20173;-79
2022/02/27 12:25:41;;;;;;;5.53;1.60;;;10.20;99.90;;;;;;6204961;23;20174;-79
2022/02/27 12:28:08;;;;;;;5.80;2.43;;;10.40;99.90;;;;;;6203181;23;20174;-79
2022/02/27 12:30:37;;;;;;;4.43;1.90;;;10.30;99.90;;;;;;6204080;23;20177;-80
2022/02/27 12:33:08;;;;;;;5.60;2.03;;;10.40;99.90;;;;;;6203996;23;20174;-79
2022/02/27 12:35:35;;;;;;;5.13;2.30;;;10.40;99.90;;;;;;6203049;23;20186;-80
2022/02/27 12:38:06;;;;;;;4.93;2.50;;;10.40;99.90;;;;;;6204250;23;20205;-80
2022/02/27 12:40:36;;;;;;;4.47;2.47;;;10.40;99.90;;;;;;6204391;23;20202;-79
2022/02/27 12:43:05;;;;;;;6.57;2.53;;;10.40;99.90;;;;;;6203660;23;20166;-79
2022/02/27 12:45:34;;;;;;;6.20;2.70;;;10.40;99.90;;;;;;6203998;23;20482;-79
2022/02/27 12:48:10;;;;;;;5.83;3.13;;;10.30;99.90;;;;;;6203892;23;20197;-80
2022/02/27 12:50:44;;;;;;;3.90;2.63;;;10.20;99.90;;;;;;6204180;23;20264;-79
2022/02/27 12:53:11;;;;;;;3.83;2.80;;;10.30;99.90;;;;;;6203940;23;20261;-79
2022/02/27 12:55:39;;;;;;;7.77;3.03;;;10.30;99.90;;;;;;6203990;23;20225;-77
2022/02/27 12:58:07;;;;;;;5.80;3.10;;;10.20;99.90;;;;;;6204353;23;20193;-78